sensor_id;sensor_type;location;lat;lon;timestamp;temperature;humidity
40516;DHT22;26216;53.724;9.898;2022-12-29T00:01:31;10.20;99.90
40516;DHT22;26216;53.724;9.898;2022-12-29T00:03:58;10.20;99.90
40516;DHT22;26216;53.724;9.898;2022-12-29T00:06:24;10.20;99.90
40516;DHT22;26216;53.724;9.898;2022-12-29T00:08:51;10.30;99.90
40516;DHT22;26216;53.724;9.898;2022-12-29T00:11:20;10.30;99.90
40516;DHT22;26216;53.724;9.898;2022-12-29T00:13:47;10.30;99.90
40516;DHT22;26216;53.724;9.898;2022-12-29T00:16:32;10.30;99.90
40516;DHT22;26216;53.724;9.898;2022-12-29T00:18:59;10.30;99.90
40516;DHT22;26216;53.724;9.898;2022-12-29T00:21:25;10.30;99.90
40516;DHT22;26216;53.724;9.898;2022-12-29T00:24:16;10.30;99.90
40516;DHT22;26216;53.724;9.898;2022-12-29T00:27:09;10.40;99.90
40516;DHT22;26216;53.724;9.898;2022-12-29T00:29:54;10.40;99.90
40516;DHT22;26216;53.724;9.898;2022-12-29T00:32:38;10.40;99.90
40516;DHT22;26216;53.724;9.898;2022-12-29T00:35:29;10.40;99.90
40516;DHT22;26216;53.724;9.898;2022-12-29T00:37:57;10.40;99.90
40516;DHT22;26216;53.724;9.898;2022-12-29T00:40:42;10.40;99.90
40516;DHT22;26216;53.724;9.898;2022-12-29T00:43:27;10.50;99.90
40516;DHT22;26216;53.724;9.898;2022-12-29T00:46:11;10.50;99.90
40516;DHT22;26216;53.724;9.898;2022-12-29T00:48:37;10.50;99.90
40516;DHT22;26216;53.724;9.898;2022-12-29T00:51:22;10.50;99.90
40516;DHT22;26216;53.724;9.898;2022-12-29T00:53:49;10.50;99.90
40516;DHT22;26216;53.724;9.898;2022-12-29T00:56:15;10.50;99.90
40516;DHT22;26216;53.724;9.898;2022-12-29T00:58:40;10.50;99.90
40516;DHT22;26216;53.724;9.898;2022-12-29T01:01:08;10.60;99.90
40516;DHT22;26216;53.724;9.898;2022-12-29T01:03:35;10.60;99.90
40516;DHT22;26216;53.724;9.898;2022-12-29T01:06:03;10.60;99.90
40516;DHT22;26216;53.724;9.898;2022-12-29T01:08:30;10.60;99.90
40516;DHT22;26216;53.724;9.898;2022-12-29T01:11:12;10.70;99.90
40516;DHT22;26216;53.724;9.898;2022-12-29T01:13:39;10.70;99.90
40516;DHT22;26216;53.724;9.898;2022-12-29T01:16:06;10.70;99.90
40516;DHT22;26216;53.724;9.898;2022-12-29T01:18:32;10.70;99.90
40516;DHT22;26216;53.724;9.898;2022-12-29T01:21:03;10.70;99.90
40516;DHT22;26216;53.724;9.898;2022-12-29T01:23:30;10.70;99.90
40516;DHT22;26216;53.724;9.898;2022-12-29T01:25:57;10.70;99.90
40516;DHT22;26216;53.724;9.898;2022-12-29T01:28:23;10.80;99.90
40516;DHT22;26216;53.724;9.898;2022-12-29T01:30:48;10.70;99.90
40516;DHT22;26216;53.724;9.898;2022-12-29T01:33:14;10.80;99.90
40516;DHT22;26216;53.724;9.898;2022-12-29T01:35:40;10.80;99.90
40516;DHT22;26216;53.724;9.898;2022-12-29T01:38:06;10.80;99.90
40516;DHT22;26216;53.724;9.898;2022-12-29T01:40:33;10.80;99.90
40516;DHT22;26216;53.724;9.898;2022-12-29T01:42:59;10.80;99.90
40516;DHT22;26216;53.724;9.898;2022-12-29T01:45:24;10.80;99.90
40516;DHT22;26216;53.724;9.898;2022-12-29T01:47:54;10.90;99.90
40516;DHT22;26216;53.724;9.898;2022-12-29T01:50:43;10.80;99.90
40516;DHT22;26216;53.724;9.898;2022-12-29T01:53:32;10.90;99.90
40516;DHT22;26216;53.724;9.898;2022-12-29T01:56:04;10.90;99.90
40516;DHT22;26216;53.724;9.898;2022-12-29T01:58:35;10.90;99.90
40516;DHT22;26216;53.724;9.898;2022-12-29T02:01:03;10.90;99.90
40516;DHT22;26216;53.724;9.898;2022-12-29T02:03:30;11.00;99.90
40516;DHT22;26216;53.724;9.898;2022-12-29T02:06:14;10.90;99.90
40516;DHT22;26216;53.724;9.898;2022-12-29T02:08:46;10.90;99.90
40516;DHT22;26216;53.724;9.898;2022-12-29T02:11:12;11.00;99.90
40516;DHT22;26216;53.724;9.898;2022-12-29T02:13:38;11.00;99.90
40516;DHT22;26216;53.724;9.898;2022-12-29T02:16:35;11.00;99.90
40516;DHT22;26216;53.724;9.898;2022-12-29T02:27:31;11.00;99.90
40516;DHT22;26216;53.724;9.898;2022-12-29T02:44:38;11.10;99.90
40516;DHT22;26216;53.724;9.898;2022-12-29T02:49:48;11.10;99.90
40516;DHT22;26216;53.724;9.898;2022-12-29T02:52:26;11.10;99.90
40516;DHT22;26216;53.724;9.898;2022-12-29T02:54:54;11.10;99.90
40516;DHT22;26216;53.724;9.898;2022-12-29T02:59:51;11.20;99.90
40516;DHT22;26216;53.724;9.898;2022-12-29T03:05:10;11.20;99.90
40516;DHT22;26216;53.724;9.898;2022-12-29T03:10:39;11.20;99.90
40516;DHT22;26216;53.724;9.898;2022-12-29T03:16:23;11.20;99.90
40516;DHT22;26216;53.724;9.898;2022-12-29T03:21:36;11.30;99.90
40516;DHT22;26216;53.724;9.898;2022-12-29T03:24:26;11.30;99.90
40516;DHT22;26216;53.724;9.898;2022-12-29T03:26:55;11.30;99.90
40516;DHT22;26216;53.724;9.898;2022-12-29T03:29:21;11.30;99.90
40516;DHT22;26216;53.724;9.898;2022-12-29T03:31:49;11.30;99.90
40516;DHT22;26216;53.724;9.898;2022-12-29T03:34:18;11.30;99.90
40516;DHT22;26216;53.724;9.898;2022-12-29T03:37:01;11.40;99.90
40516;DHT22;26216;53.724;9.898;2022-12-29T03:39:27;11.40;99.90
40516;DHT22;26216;53.724;9.898;2022-12-29T03:42:04;11.40;99.90
40516;DHT22;26216;53.724;9.898;2022-12-29T03:44:39;11.40;99.90
40516;DHT22;26216;53.724;9.898;2022-12-29T03:47:06;11.40;99.90
40516;DHT22;26216;53.724;9.898;2022-12-29T03:49:32;11.40;99.90
40516;DHT22;26216;53.724;9.898;2022-12-29T03:51:58;11.40;99.90
40516;DHT22;26216;53.724;9.898;2022-12-29T03:54:24;11.50;99.90
40516;DHT22;26216;53.724;9.898;2022-12-29T03:56:50;11.50;99.90
40516;DHT22;26216;53.724;9.898;2022-12-29T03:59:16;11.50;99.90
40516;DHT22;26216;53.724;9.898;2022-12-29T04:01:42;11.50;99.90
40516;DHT22;26216;53.724;9.898;2022-12-29T04:04:08;11.50;99.90
40516;DHT22;26216;53.724;9.898;2022-12-29T04:06:34;11.50;99.90
40516;DHT22;26216;53.724;9.898;2022-12-29T04:09:00;11.50;99.90
40516;DHT22;26216;53.724;9.898;2022-12-29T04:11:26;11.50;99.90
40516;DHT22;26216;53.724;9.898;2022-12-29T04:13:52;11.60;99.90
40516;DHT22;26216;53.724;9.898;2022-12-29T04:16:18;11.60;99.90
40516;DHT22;26216;53.724;9.898;2022-12-29T04:18:44;11.60;99.90
40516;DHT22;26216;53.724;9.898;2022-12-29T04:21:10;11.60;99.90
40516;DHT22;26216;53.724;9.898;2022-12-29T04:23:37;11.60;99.90
40516;DHT22;26216;53.724;9.898;2022-12-29T04:26:05;11.60;99.90
40516;DHT22;26216;53.724;9.898;2022-12-29T04:28:35;11.60;99.90
40516;DHT22;26216;53.724;9.898;2022-12-29T04:31:04;11.60;99.90
40516;DHT22;26216;53.724;9.898;2022-12-29T04:33:30;11.60;99.90
40516;DHT22;26216;53.724;9.898;2022-12-29T04:35:56;11.70;99.90
40516;DHT22;26216;53.724;9.898;2022-12-29T04:38:23;11.60;99.90
40516;DHT22;26216;53.724;9.898;2022-12-29T04:40:50;11.70;99.90
40516;DHT22;26216;53.724;9.898;2022-12-29T04:43:16;11.70;99.90
40516;DHT22;26216;53.724;9.898;2022-12-29T04:45:45;11.60;99.90
40516;DHT22;26216;53.724;9.898;2022-12-29T04:48:14;11.70;99.90
40516;DHT22;26216;53.724;9.898;2022-12-29T04:50:42;11.70;99.90
40516;DHT22;26216;53.724;9.898;2022-12-29T04:53:08;11.70;99.90
40516;DHT22;26216;53.724;9.898;2022-12-29T04:55:34;11.70;99.90
40516;DHT22;26216;53.724;9.898;2022-12-29T04:58:00;11.70;99.90
40516;DHT22;26216;53.724;9.898;2022-12-29T05:00:26;11.70;99.90
40516;DHT22;26216;53.724;9.898;2022-12-29T05:02:52;11.70;99.90
40516;DHT22;26216;53.724;9.898;2022-12-29T05:05:18;11.70;99.90
40516;DHT22;26216;53.724;9.898;2022-12-29T05:07:44;11.80;99.90
40516;DHT22;26216;53.724;9.898;2022-12-29T05:10:10;11.80;99.90
40516;DHT22;26216;53.724;9.898;2022-12-29T05:12:37;11.80;99.90
40516;DHT22;26216;53.724;9.898;2022-12-29T05:15:05;11.80;99.90
40516;DHT22;26216;53.724;9.898;2022-12-29T05:17:31;11.80;99.90
40516;DHT22;26216;53.724;9.898;2022-12-29T05:19:57;11.80;99.90
40516;DHT22;26216;53.724;9.898;2022-12-29T05:22:23;11.80;99.90
40516;DHT22;26216;53.724;9.898;2022-12-29T05:24:48;11.80;99.90
40516;DHT22;26216;53.724;9.898;2022-12-29T05:27:14;11.80;99.90
40516;DHT22;26216;53.724;9.898;2022-12-29T05:29:40;11.80;99.90
40516;DHT22;26216;53.724;9.898;2022-12-29T05:32:06;11.80;99.90
40516;DHT22;26216;53.724;9.898;2022-12-29T05:34:32;11.80;99.90
40516;DHT22;26216;53.724;9.898;2022-12-29T05:36:58;11.80;99.90
40516;DHT22;26216;53.724;9.898;2022-12-29T05:39:23;11.80;99.90
40516;DHT22;26216;53.724;9.898;2022-12-29T05:41:49;11.80;99.90
40516;DHT22;26216;53.724;9.898;2022-12-29T05:44:15;11.80;99.90
40516;DHT22;26216;53.724;9.898;2022-12-29T05:46:41;11.80;99.90
40516;DHT22;26216;53.724;9.898;2022-12-29T05:49:07;11.80;99.90
40516;DHT22;26216;53.724;9.898;2022-12-29T05:51:33;11.90;99.90
40516;DHT22;26216;53.724;9.898;2022-12-29T05:53:58;11.80;99.90
40516;DHT22;26216;53.724;9.898;2022-12-29T05:56:24;11.90;99.90
40516;DHT22;26216;53.724;9.898;2022-12-29T05:58:50;11.90;99.90
40516;DHT22;26216;53.724;9.898;2022-12-29T06:01:16;11.90;99.90
40516;DHT22;26216;53.724;9.898;2022-12-29T06:03:42;11.90;99.90
40516;DHT22;26216;53.724;9.898;2022-12-29T06:06:07;11.90;99.90
40516;DHT22;26216;53.724;9.898;2022-12-29T06:08:33;11.90;99.90
40516;DHT22;26216;53.724;9.898;2022-12-29T06:10:59;11.90;99.90
40516;DHT22;26216;53.724;9.898;2022-12-29T06:13:25;11.90;99.90
40516;DHT22;26216;53.724;9.898;2022-12-29T06:15:51;11.90;99.90
40516;DHT22;26216;53.724;9.898;2022-12-29T06:18:17;12.00;99.90
40516;DHT22;26216;53.724;9.898;2022-12-29T06:20:43;12.00;99.90
40516;DHT22;26216;53.724;9.898;2022-12-29T06:23:09;11.90;99.90
40516;DHT22;26216;53.724;9.898;2022-12-29T06:25:35;12.00;99.90
40516;DHT22;26216;53.724;9.898;2022-12-29T06:28:03;12.00;99.90
40516;DHT22;26216;53.724;9.898;2022-12-29T06:30:29;12.00;99.90
40516;DHT22;26216;53.724;9.898;2022-12-29T06:32:55;12.00;99.90
40516;DHT22;26216;53.724;9.898;2022-12-29T06:35:21;12.00;99.90
40516;DHT22;26216;53.724;9.898;2022-12-29T06:37:48;12.00;99.90
40516;DHT22;26216;53.724;9.898;2022-12-29T06:40:14;11.90;99.90
40516;DHT22;26216;53.724;9.898;2022-12-29T06:42:40;12.00;99.90
40516;DHT22;26216;53.724;9.898;2022-12-29T06:45:06;12.00;99.90
40516;DHT22;26216;53.724;9.898;2022-12-29T06:47:33;12.00;99.90
40516;DHT22;26216;53.724;9.898;2022-12-29T06:50:00;11.90;99.90
40516;DHT22;26216;53.724;9.898;2022-12-29T06:52:26;11.90;99.90
40516;DHT22;26216;53.724;9.898;2022-12-29T06:54:51;11.90;99.90
40516;DHT22;26216;53.724;9.898;2022-12-29T06:57:17;11.80;99.90
40516;DHT22;26216;53.724;9.898;2022-12-29T06:59:43;11.80;99.90
40516;DHT22;26216;53.724;9.898;2022-12-29T07:02:12;11.80;99.90
40516;DHT22;26216;53.724;9.898;2022-12-29T07:04:40;11.80;99.90
40516;DHT22;26216;53.724;9.898;2022-12-29T07:07:10;11.80;99.90
40516;DHT22;26216;53.724;9.898;2022-12-29T07:09:37;11.80;99.90
40516;DHT22;26216;53.724;9.898;2022-12-29T07:12:03;11.80;99.90
40516;DHT22;26216;53.724;9.898;2022-12-29T07:14:29;11.80;99.90
40516;DHT22;26216;53.724;9.898;2022-12-29T07:16:55;11.70;99.90
40516;DHT22;26216;53.724;9.898;2022-12-29T07:19:22;11.70;99.90
40516;DHT22;26216;53.724;9.898;2022-12-29T07:21:48;11.70;99.90
40516;DHT22;26216;53.724;9.898;2022-12-29T07:24:14;11.70;99.90
40516;DHT22;26216;53.724;9.898;2022-12-29T07:26:40;11.70;99.90
40516;DHT22;26216;53.724;9.898;2022-12-29T07:29:06;11.60;99.90
40516;DHT22;26216;53.724;9.898;2022-12-29T07:31:32;11.60;99.90
40516;DHT22;26216;53.724;9.898;2022-12-29T07:33:58;11.60;99.90
40516;DHT22;26216;53.724;9.898;2022-12-29T07:36:24;11.60;99.90
40516;DHT22;26216;53.724;9.898;2022-12-29T07:38:50;11.60;99.90
40516;DHT22;26216;53.724;9.898;2022-12-29T07:41:16;11.60;99.90
40516;DHT22;26216;53.724;9.898;2022-12-29T07:43:42;11.60;99.90
40516;DHT22;26216;53.724;9.898;2022-12-29T07:46:07;11.60;99.90
40516;DHT22;26216;53.724;9.898;2022-12-29T07:48:35;11.60;99.90
40516;DHT22;26216;53.724;9.898;2022-12-29T07:51:01;11.60;99.90
40516;DHT22;26216;53.724;9.898;2022-12-29T07:53:27;11.60;99.90
40516;DHT22;26216;53.724;9.898;2022-12-29T07:55:53;11.60;99.90
40516;DHT22;26216;53.724;9.898;2022-12-29T07:58:18;11.60;99.90
40516;DHT22;26216;53.724;9.898;2022-12-29T08:00:45;11.70;99.90
40516;DHT22;26216;53.724;9.898;2022-12-29T08:03:11;11.60;99.90
40516;DHT22;26216;53.724;9.898;2022-12-29T08:05:37;11.70;99.90
40516;DHT22;26216;53.724;9.898;2022-12-29T08:08:03;11.70;99.90
40516;DHT22;26216;53.724;9.898;2022-12-29T08:10:36;11.70;99.90
40516;DHT22;26216;53.724;9.898;2022-12-29T08:13:02;11.70;99.90
40516;DHT22;26216;53.724;9.898;2022-12-29T08:15:27;11.70;99.90
40516;DHT22;26216;53.724;9.898;2022-12-29T08:17:53;11.70;99.90
40516;DHT22;26216;53.724;9.898;2022-12-29T08:20:19;11.70;99.90
40516;DHT22;26216;53.724;9.898;2022-12-29T08:22:45;11.70;99.90
40516;DHT22;26216;53.724;9.898;2022-12-29T08:25:11;11.70;99.90
40516;DHT22;26216;53.724;9.898;2022-12-29T08:27:37;11.70;99.90
40516;DHT22;26216;53.724;9.898;2022-12-29T08:30:04;11.70;99.90
40516;DHT22;26216;53.724;9.898;2022-12-29T08:32:30;11.70;99.90
40516;DHT22;26216;53.724;9.898;2022-12-29T08:34:59;11.70;99.90
40516;DHT22;26216;53.724;9.898;2022-12-29T08:37:25;11.70;99.90
40516;DHT22;26216;53.724;9.898;2022-12-29T08:39:51;11.70;99.90
40516;DHT22;26216;53.724;9.898;2022-12-29T08:42:16;11.70;99.90
40516;DHT22;26216;53.724;9.898;2022-12-29T08:44:42;11.70;99.90
40516;DHT22;26216;53.724;9.898;2022-12-29T08:47:10;11.70;99.90
40516;DHT22;26216;53.724;9.898;2022-12-29T08:49:37;11.70;99.90
40516;DHT22;26216;53.724;9.898;2022-12-29T08:52:04;11.70;99.90
40516;DHT22;26216;53.724;9.898;2022-12-29T08:54:30;11.70;99.90
40516;DHT22;26216;53.724;9.898;2022-12-29T08:56:56;11.70;99.90
40516;DHT22;26216;53.724;9.898;2022-12-29T08:59:21;11.80;99.90
40516;DHT22;26216;53.724;9.898;2022-12-29T09:01:47;11.80;99.90
40516;DHT22;26216;53.724;9.898;2022-12-29T09:04:13;11.80;99.90
40516;DHT22;26216;53.724;9.898;2022-12-29T09:06:39;11.90;99.90
40516;DHT22;26216;53.724;9.898;2022-12-29T09:09:05;11.90;99.90
40516;DHT22;26216;53.724;9.898;2022-12-29T09:11:31;11.90;99.90
40516;DHT22;26216;53.724;9.898;2022-12-29T09:13:57;11.90;99.90
40516;DHT22;26216;53.724;9.898;2022-12-29T09:16:35;11.90;99.90
40516;DHT22;26216;53.724;9.898;2022-12-29T09:19:05;11.90;99.90
40516;DHT22;26216;53.724;9.898;2022-12-29T09:21:32;12.00;99.90
40516;DHT22;26216;53.724;9.898;2022-12-29T09:23:58;12.00;99.90
40516;DHT22;26216;53.724;9.898;2022-12-29T09:26:24;12.00;99.90
40516;DHT22;26216;53.724;9.898;2022-12-29T09:28:50;12.10;99.90
40516;DHT22;26216;53.724;9.898;2022-12-29T09:31:16;12.10;99.90
40516;DHT22;26216;53.724;9.898;2022-12-29T09:33:42;12.10;99.90
40516;DHT22;26216;53.724;9.898;2022-12-29T09:36:08;12.10;99.90
40516;DHT22;26216;53.724;9.898;2022-12-29T09:38:35;12.20;99.90
40516;DHT22;26216;53.724;9.898;2022-12-29T09:41:16;12.20;99.90
40516;DHT22;26216;53.724;9.898;2022-12-29T09:46:28;12.30;99.90
40516;DHT22;26216;53.724;9.898;2022-12-29T09:51:51;12.30;99.90
40516;DHT22;26216;53.724;9.898;2022-12-29T09:57:13;12.40;99.90
40516;DHT22;26216;53.724;9.898;2022-12-29T09:59:42;12.40;99.90
40516;DHT22;26216;53.724;9.898;2022-12-29T10:04:58;12.40;99.90
40516;DHT22;26216;53.724;9.898;2022-12-29T10:10:59;12.40;99.90
40516;DHT22;26216;53.724;9.898;2022-12-29T10:16:43;12.40;99.90
40516;DHT22;26216;53.724;9.898;2022-12-29T10:22:19;12.40;99.90
40516;DHT22;26216;53.724;9.898;2022-12-29T10:24:52;12.40;99.90
40516;DHT22;26216;53.724;9.898;2022-12-29T10:27:19;12.40;99.90
40516;DHT22;26216;53.724;9.898;2022-12-29T10:29:52;12.40;99.90
40516;DHT22;26216;53.724;9.898;2022-12-29T10:32:34;12.40;99.90
40516;DHT22;26216;53.724;9.898;2022-12-29T10:35:20;12.40;99.90
40516;DHT22;26216;53.724;9.898;2022-12-29T10:38:01;12.40;99.90
40516;DHT22;26216;53.724;9.898;2022-12-29T10:40:38;12.40;99.90
40516;DHT22;26216;53.724;9.898;2022-12-29T10:46:36;12.40;99.90
40516;DHT22;26216;53.724;9.898;2022-12-29T10:49:04;12.40;99.90
40516;DHT22;26216;53.724;9.898;2022-12-29T10:51:33;12.40;99.90
40516;DHT22;26216;53.724;9.898;2022-12-29T10:54:22;12.50;99.90
40516;DHT22;26216;53.724;9.898;2022-12-29T10:57:00;12.50;99.90
40516;DHT22;26216;53.724;9.898;2022-12-29T10:59:30;12.50;99.90
40516;DHT22;26216;53.724;9.898;2022-12-29T11:02:06;12.50;99.90
40516;DHT22;26216;53.724;9.898;2022-12-29T11:05:06;12.50;99.90
40516;DHT22;26216;53.724;9.898;2022-12-29T11:07:36;12.60;99.90
40516;DHT22;26216;53.724;9.898;2022-12-29T11:13:03;12.60;99.90
40516;DHT22;26216;53.724;9.898;2022-12-29T11:15:46;12.60;99.90
40516;DHT22;26216;53.724;9.898;2022-12-29T11:18:27;12.70;99.90
40516;DHT22;26216;53.724;9.898;2022-12-29T11:20:59;12.70;99.90
40516;DHT22;26216;53.724;9.898;2022-12-29T11:23:36;12.70;99.90
40516;DHT22;26216;53.724;9.898;2022-12-29T11:26:11;12.70;99.90
40516;DHT22;26216;53.724;9.898;2022-12-29T11:28:39;12.70;99.90
40516;DHT22;26216;53.724;9.898;2022-12-29T11:31:07;12.70;99.90
40516;DHT22;26216;53.724;9.898;2022-12-29T11:33:36;12.70;99.90
40516;DHT22;26216;53.724;9.898;2022-12-29T11:36:22;12.70;99.90
40516;DHT22;26216;53.724;9.898;2022-12-29T11:38:50;12.70;99.90
40516;DHT22;26216;53.724;9.898;2022-12-29T11:41:26;12.70;99.90
40516;DHT22;26216;53.724;9.898;2022-12-29T11:43:55;12.70;99.90
40516;DHT22;26216;53.724;9.898;2022-12-29T11:46:34;12.70;99.90
40516;DHT22;26216;53.724;9.898;2022-12-29T11:49:01;12.70;99.90
40516;DHT22;26216;53.724;9.898;2022-12-29T11:51:33;12.70;99.90
40516;DHT22;26216;53.724;9.898;2022-12-29T11:54:03;12.70;99.90
40516;DHT22;26216;53.724;9.898;2022-12-29T11:56:38;12.70;99.90
40516;DHT22;26216;53.724;9.898;2022-12-29T12:01:51;12.70;99.90
40516;DHT22;26216;53.724;9.898;2022-12-29T12:04:19;12.70;99.90
40516;DHT22;26216;53.724;9.898;2022-12-29T12:09:38;12.70;99.90
40516;DHT22;26216;53.724;9.898;2022-12-29T12:12:22;12.80;99.90
40516;DHT22;26216;53.724;9.898;2022-12-29T12:14:55;12.80;99.90
40516;DHT22;26216;53.724;9.898;2022-12-29T12:18:02;12.80;99.90
40516;DHT22;26216;53.724;9.898;2022-12-29T12:20:45;12.80;99.90
40516;DHT22;26216;53.724;9.898;2022-12-29T12:26:17;12.80;99.90
40516;DHT22;26216;53.724;9.898;2022-12-29T12:28:57;12.70;99.90
40516;DHT22;26216;53.724;9.898;2022-12-29T12:31:50;12.70;99.90
40516;DHT22;26216;53.724;9.898;2022-12-29T12:34:23;12.70;99.90
40516;DHT22;26216;53.724;9.898;2022-12-29T12:39:26;12.70;99.90
40516;DHT22;26216;53.724;9.898;2022-12-29T12:52:37;12.50;99.90
40516;DHT22;26216;53.724;9.898;2022-12-29T13:00:19;12.50;99.90
40516;DHT22;26216;53.724;9.898;2022-12-29T13:03:13;12.50;99.90
40516;DHT22;26216;53.724;9.898;2022-12-29T13:08:59;12.50;99.90
40516;DHT22;26216;53.724;9.898;2022-12-29T13:14:33;12.40;99.90
40516;DHT22;26216;53.724;9.898;2022-12-29T13:17:25;12.40;99.90
40516;DHT22;26216;53.724;9.898;2022-12-29T13:25:49;12.40;99.90
40516;DHT22;26216;53.724;9.898;2022-12-29T13:29:21;12.40;99.90
40516;DHT22;26216;53.724;9.898;2022-12-29T13:34:54;12.40;99.90
40516;DHT22;26216;53.724;9.898;2022-12-29T13:37:13;12.30;99.90
40516;DHT22;26216;53.724;9.898;2022-12-29T13:39:48;12.30;99.90
40516;DHT22;26216;53.724;9.898;2022-12-29T13:42:16;12.30;99.90
40516;DHT22;26216;53.724;9.898;2022-12-29T13:44:50;12.30;99.90
40516;DHT22;26216;53.724;9.898;2022-12-29T13:47:25;12.30;99.90
40516;DHT22;26216;53.724;9.898;2022-12-29T13:49:56;12.20;99.90
40516;DHT22;26216;53.724;9.898;2022-12-29T13:52:39;12.20;99.90
40516;DHT22;26216;53.724;9.898;2022-12-29T13:58:13;12.10;99.90
40516;DHT22;26216;53.724;9.898;2022-12-29T14:00:57;12.10;99.90
40516;DHT22;26216;53.724;9.898;2022-12-29T14:03:49;12.10;99.90
40516;DHT22;26216;53.724;9.898;2022-12-29T14:08:57;12.00;99.90
40516;DHT22;26216;53.724;9.898;2022-12-29T14:11:36;11.90;99.90
40516;DHT22;26216;53.724;9.898;2022-12-29T14:16:45;11.90;99.90
40516;DHT22;26216;53.724;9.898;2022-12-29T14:19:19;11.80;99.90
40516;DHT22;26216;53.724;9.898;2022-12-29T14:22:02;11.80;99.90
40516;DHT22;26216;53.724;9.898;2022-12-29T14:35:37;11.60;99.90
40516;DHT22;26216;53.724;9.898;2022-12-29T14:38:26;11.60;99.90
40516;DHT22;26216;53.724;9.898;2022-12-29T14:41:30;11.50;99.90
40516;DHT22;26216;53.724;9.898;2022-12-29T14:49:31;11.50;99.90
40516;DHT22;26216;53.724;9.898;2022-12-29T14:52:13;11.40;99.90
40516;DHT22;26216;53.724;9.898;2022-12-29T14:54:44;11.40;99.90
40516;DHT22;26216;53.724;9.898;2022-12-29T14:57:19;11.30;99.90
40516;DHT22;26216;53.724;9.898;2022-12-29T14:59:46;11.30;99.90
40516;DHT22;26216;53.724;9.898;2022-12-29T15:02:19;11.30;99.90
40516;DHT22;26216;53.724;9.898;2022-12-29T15:04:47;11.30;99.90
40516;DHT22;26216;53.724;9.898;2022-12-29T15:07:13;11.20;99.90
40516;DHT22;26216;53.724;9.898;2022-12-29T15:09:43;11.20;99.90
40516;DHT22;26216;53.724;9.898;2022-12-29T15:12:36;11.20;99.90
40516;DHT22;26216;53.724;9.898;2022-12-29T15:15:18;11.10;99.90
40516;DHT22;26216;53.724;9.898;2022-12-29T15:17:45;11.10;99.90
40516;DHT22;26216;53.724;9.898;2022-12-29T15:20:21;11.10;99.90
40516;DHT22;26216;53.724;9.898;2022-12-29T15:23:02;11.10;99.90
40516;DHT22;26216;53.724;9.898;2022-12-29T15:25:29;11.00;99.90
40516;DHT22;26216;53.724;9.898;2022-12-29T15:28:01;11.00;99.90
40516;DHT22;26216;53.724;9.898;2022-12-29T15:30:27;11.00;99.90
40516;DHT22;26216;53.724;9.898;2022-12-29T15:32:53;10.90;99.90
40516;DHT22;26216;53.724;9.898;2022-12-29T15:35:34;10.90;99.90
40516;DHT22;26216;53.724;9.898;2022-12-29T15:38:14;10.90;99.90
40516;DHT22;26216;53.724;9.898;2022-12-29T15:40:44;10.90;99.90
40516;DHT22;26216;53.724;9.898;2022-12-29T15:45:49;10.90;99.90
40516;DHT22;26216;53.724;9.898;2022-12-29T15:48:19;10.80;99.90
40516;DHT22;26216;53.724;9.898;2022-12-29T15:50:47;10.90;99.90
40516;DHT22;26216;53.724;9.898;2022-12-29T15:53:28;10.80;99.90
40516;DHT22;26216;53.724;9.898;2022-12-29T15:55:57;10.80;99.90
40516;DHT22;26216;53.724;9.898;2022-12-29T15:58:27;10.80;99.90
40516;DHT22;26216;53.724;9.898;2022-12-29T16:00:58;10.80;99.90
40516;DHT22;26216;53.724;9.898;2022-12-29T16:03:27;10.80;99.90
40516;DHT22;26216;53.724;9.898;2022-12-29T16:06:10;10.70;99.90
40516;DHT22;26216;53.724;9.898;2022-12-29T16:08:38;10.70;99.90
40516;DHT22;26216;53.724;9.898;2022-12-29T16:11:26;10.60;99.90
40516;DHT22;26216;53.724;9.898;2022-12-29T16:13:54;10.60;99.90
40516;DHT22;26216;53.724;9.898;2022-12-29T16:16:29;10.50;99.90
40516;DHT22;26216;53.724;9.898;2022-12-29T16:18:57;10.50;99.90
40516;DHT22;26216;53.724;9.898;2022-12-29T16:21:32;10.40;99.90
40516;DHT22;26216;53.724;9.898;2022-12-29T16:24:04;10.40;99.90
40516;DHT22;26216;53.724;9.898;2022-12-29T16:26:31;10.30;99.90
40516;DHT22;26216;53.724;9.898;2022-12-29T16:29:23;10.30;99.90
40516;DHT22;26216;53.724;9.898;2022-12-29T16:32:26;10.30;99.90
40516;DHT22;26216;53.724;9.898;2022-12-29T16:38:07;10.20;99.90
40516;DHT22;26216;53.724;9.898;2022-12-29T16:40:58;10.10;99.90
40516;DHT22;26216;53.724;9.898;2022-12-29T16:43:46;10.10;99.90
40516;DHT22;26216;53.724;9.898;2022-12-29T16:46:30;10.00;99.90
40516;DHT22;26216;53.724;9.898;2022-12-29T16:49:16;10.00;99.90
40516;DHT22;26216;53.724;9.898;2022-12-29T16:52:16;9.90;99.90
40516;DHT22;26216;53.724;9.898;2022-12-29T16:55:02;9.90;99.90
40516;DHT22;26216;53.724;9.898;2022-12-29T16:57:49;9.80;99.90
40516;DHT22;26216;53.724;9.898;2022-12-29T17:00:35;9.80;99.90
40516;DHT22;26216;53.724;9.898;2022-12-29T17:03:20;9.80;99.90
40516;DHT22;26216;53.724;9.898;2022-12-29T17:06:05;9.70;99.90
40516;DHT22;26216;53.724;9.898;2022-12-29T17:08:51;9.70;99.90
40516;DHT22;26216;53.724;9.898;2022-12-29T17:11:36;9.70;99.90
40516;DHT22;26216;53.724;9.898;2022-12-29T17:14:46;9.60;99.90
40516;DHT22;26216;53.724;9.898;2022-12-29T17:17:41;9.60;99.90
40516;DHT22;26216;53.724;9.898;2022-12-29T17:20:28;9.60;99.90
40516;DHT22;26216;53.724;9.898;2022-12-29T17:23:14;9.50;99.90
40516;DHT22;26216;53.724;9.898;2022-12-29T17:26:00;9.50;99.90
40516;DHT22;26216;53.724;9.898;2022-12-29T17:28:46;9.50;99.90
40516;DHT22;26216;53.724;9.898;2022-12-29T17:31:31;9.40;99.90
40516;DHT22;26216;53.724;9.898;2022-12-29T17:33:57;9.40;99.90
40516;DHT22;26216;53.724;9.898;2022-12-29T17:36:23;9.40;99.90
40516;DHT22;26216;53.724;9.898;2022-12-29T17:38:51;9.40;99.90
40516;DHT22;26216;53.724;9.898;2022-12-29T17:41:17;9.30;99.90
40516;DHT22;26216;53.724;9.898;2022-12-29T17:43:43;9.30;99.90
40516;DHT22;26216;53.724;9.898;2022-12-29T17:46:09;9.30;99.90
40516;DHT22;26216;53.724;9.898;2022-12-29T17:48:35;9.30;99.90
40516;DHT22;26216;53.724;9.898;2022-12-29T17:51:01;9.30;99.90
40516;DHT22;26216;53.724;9.898;2022-12-29T17:53:30;9.30;99.90
40516;DHT22;26216;53.724;9.898;2022-12-29T17:55:56;9.30;99.90
40516;DHT22;26216;53.724;9.898;2022-12-29T17:58:25;9.30;99.90
40516;DHT22;26216;53.724;9.898;2022-12-29T18:00:53;9.30;99.90
40516;DHT22;26216;53.724;9.898;2022-12-29T18:03:27;9.30;99.90
40516;DHT22;26216;53.724;9.898;2022-12-29T18:05:54;9.30;99.90
40516;DHT22;26216;53.724;9.898;2022-12-29T18:08:20;9.30;99.90
40516;DHT22;26216;53.724;9.898;2022-12-29T18:10:46;9.30;99.90
40516;DHT22;26216;53.724;9.898;2022-12-29T18:13:25;9.40;99.90
40516;DHT22;26216;53.724;9.898;2022-12-29T18:15:52;9.40;99.90
40516;DHT22;26216;53.724;9.898;2022-12-29T18:18:20;9.40;99.90
40516;DHT22;26216;53.724;9.898;2022-12-29T18:20:49;9.40;99.90